Time;durP1;ratioP1;P1;durP2;ratioP2;P2;SDS_P1;SDS_P2;PMS_P1;PMS_P2;Temp;Humidity;BMP_temperature;BMP_pressure;BME280_temperature;BME280_humidity;BME280_pressure;Samples;Min_cycle;Max_cycle;Signal;HPM_P1;HPM_P2
2024/01/25 00:01:25;;;;;;;23.80;12.20;;;;;;;-147.86;100.00;7543.19;105720;1255;60619;-54
2024/01/25 00:03:53;;;;;;;22.00;11.50;;;;;;;-147.86;100.00;7535.82;105630;1257;60542;-55
2024/01/25 00:06:21;;;;;;;23.40;12.80;;;;;;;-147.86;100.00;7588.98;105826;1253;72545;-55
2024/01/25 00:08:49;;;;;;;23.00;12.30;;;;;;;-147.86;100.00;7644.46;105822;1254;63074;-55
2024/01/25 00:11:17;;;;;;;20.60;12.40;;;;;;;-147.86;100.00;7697.24;105817;1256;71575;-55
2024/01/25 00:13:45;;;;;;;21.30;11.60;;;;;;;-147.86;100.00;7747.67;105762;1256;60559;-56
2024/01/25 00:16:13;;;;;;;22.00;13.10;;;;;;;-147.86;100.00;7734.10;105820;1254;60565;-53
2024/01/25 00:18:41;;;;;;;23.90;12.40;;;;;;;-147.86;100.00;7748.47;105840;1254;72557;-55
2024/01/25 00:21:09;;;;;;;27.10;14.50;;;;;;;-147.86;100.00;7802.79;105844;1254;63132;-56
2024/01/25 00:23:36;;;;;;;21.70;13.20;;;;;;;-147.86;100.00;7868.75;105876;1259;72649;-56
2024/01/25 00:26:05;;;;;;;22.40;12.30;;;;;;;-147.86;100.00;7994.48;105802;1267;60556;-55
2024/01/25 00:28:33;;;;;;;21.80;11.70;;;;;;;-147.86;100.00;7956.07;105856;1259;60428;-54
2024/01/25 00:31:01;;;;;;;21.70;12.20;;;;;;;-147.86;100.00;7940.55;105852;1254;72593;-56
2024/01/25 00:33:29;;;;;;;20.90;11.70;;;;;;;-147.86;100.00;8028.24;105762;1257;63109;-54
2024/01/25 00:35:57;;;;;;;17.50;10.90;;;;;;;-147.86;100.00;8092.67;105753;1258;71387;-55
2024/01/25 00:38:26;;;;;;;17.20;10.80;;;;;;;-147.86;100.00;8171.07;105915;1254;60556;-57
2024/01/25 00:40:54;;;;;;;17.80;10.90;;;;;;;-147.86;100.00;8108.99;105837;1254;60456;-52
2024/01/25 00:43:22;;;;;;;21.30;10.70;;;;;;;-147.86;100.00;8190.47;105822;1259;72347;-55
2024/01/25 00:45:51;;;;;;;17.00;10.30;;;;;;;-147.86;100.00;8214.91;105844;1258;63189;-54
2024/01/25 00:48:19;;;;;;;19.00;10.50;;;;;;;-147.86;100.00;8223.08;105706;1259;71444;-54
2024/01/25 00:50:48;;;;;;;15.80;10.30;;;;;;;-147.86;100.00;8220.73;105858;1260;60577;-56
2024/01/25 00:53:16;;;;;;;16.80;10.50;;;;;;;-147.86;100.00;8180.00;105849;1260;60498;-54
2024/01/25 00:55:44;;;;;;;16.80;10.40;;;;;;;-147.86;100.00;8199.00;105805;1254;73797;-54
2024/01/25 00:58:13;;;;;;;15.60;10.30;;;;;;;-147.86;100.00;8202.87;105866;1254;63509;-56
2024/01/25 01:00:41;;;;;;;16.30;10.10;;;;;;;-147.86;100.00;8165.23;105888;1257;72719;-55
2024/01/25 01:03:10;;;;;;;14.10;9.50;;;;;;;-147.86;100.00;8224.62;105828;1254;60546;-54
2024/01/25 01:05:38;;;;;;;19.80;10.50;;;;;;;-147.86;100.00;8141.59;105819;1258;60444;-58
2024/01/25 01:08:07;;;;;;;15.90;9.20;;;;;;;-147.86;100.00;8171.05;105823;1254;72549;-55
2024/01/25 01:10:35;;;;;;;14.20;9.10;;;;;;;-147.86;100.00;8107.42;105840;1259;63142;-52
2024/01/25 01:13:03;;;;;;;14.80;9.60;;;;;;;-147.86;100.00;8177.26;105768;1259;72527;-56
2024/01/25 01:15:31;;;;;;;15.50;9.60;;;;;;;-147.86;100.00;8206.75;105806;1260;60543;-58
2024/01/25 01:17:59;;;;;;;13.60;9.00;;;;;;;-147.86;100.00;8247.89;105794;1259;60901;-56
2024/01/25 01:20:27;;;;;;;13.00;8.50;;;;;;;-147.86;100.00;8233.52;105743;1255;72583;-55
2024/01/25 01:47:29;;;;;;;14.80;9.10;;;;;;;-147.86;100.00;46330.85;102793;1293;600706;-56
2024/01/25 01:49:57;;;;;;;13.70;9.20;;;;;;;-147.86;100.00;22997.45;105088;1269;60791;-58
2024/01/25 01:52:26;;;;;;;12.30;8.10;;;;;;;-147.86;100.00;18215.43;105088;1263;59982;-56
2024/01/25 01:54:54;;;;;;;11.70;7.80;;;;;;;-147.86;100.00;14125.17;105072;1262;73155;-57
2024/01/25 01:57:22;;;;;;;13.20;7.90;;;;;;;-147.86;100.00;10824.01;105048;1263;64364;-54
2024/01/25 01:59:51;;;;;;;11.70;8.20;;;;;;;-147.86;100.00;8413.88;104816;1270;70899;-57
2024/01/25 02:02:19;;;;;;;12.90;8.50;;;;;;;-147.86;100.00;6965.76;105017;1263;224618;-56
2024/01/25 02:04:47;;;;;;;14.70;8.30;;;;;;;-147.86;100.00;5568.59;105254;1261;60151;-55
2024/01/25 02:07:15;;;;;;;11.60;8.10;;;;;;;-147.86;100.00;4924.85;106041;1250;70948;-58
2024/01/25 02:09:43;;;;;;;10.90;7.40;;;;;;;-147.86;100.00;4589.04;106052;1251;63095;-58
2024/01/25 02:12:15;;;;;;;12.80;8.20;;;;;;;-147.86;100.00;4365.35;105990;1255;71740;-55
2024/01/25 02:14:43;;;;;;;10.80;8.00;;;;;;;-147.86;100.00;4203.31;106030;1251;60019;-57
2024/01/25 02:17:11;;;;;;;12.00;7.50;;;;;;;-147.86;100.00;3927.63;106002;1249;60110;-57
2024/01/25 02:19:40;;;;;;;10.40;8.10;;;;;;;-147.86;100.00;3922.59;105988;1251;71739;-57
2024/01/25 02:22:08;;;;;;;11.20;7.50;;;;;;;-147.86;100.00;3980.35;106033;1256;64335;-56
2024/01/25 02:24:35;;;;;;;10.60;7.20;;;;;;;-147.86;100.00;3943.51;106001;1254;71416;-55
2024/01/25 02:27:05;;;;;;;11.10;7.70;;;;;;;-147.86;100.00;4041.20;105956;1252;59749;-58
2024/01/25 02:29:33;;;;;;;10.20;6.50;;;;;;;-147.86;100.00;4109.44;106100;1255;59644;-57
2024/01/25 02:32:01;;;;;;;10.40;6.90;;;;;;;-147.86;100.00;4228.07;106000;1251;72906;-58
2024/01/25 02:34:28;;;;;;;8.50;6.70;;;;;;;-147.86;100.00;4275.37;106014;1251;62260;-59
2024/01/25 02:36:56;;;;;;;12.90;7.80;;;;;;;-147.86;100.00;4299.80;105987;1255;71357;-55
2024/01/25 02:47:22;;;;;;;;;;;;;;;-147.86;100.00;23924.32;102820;1289;600981;-55
2024/01/25 02:49:50;;;;;;;9.40;7.00;;;;;;;-147.86;100.00;4733.65;105171;1267;59247;-57
2024/01/25 02:52:18;;;;;;;10.20;6.40;;;;;;;-147.86;100.00;4773.58;105035;1269;59283;-57
2024/01/25 02:54:46;;;;;;;10.50;6.90;;;;;;;-147.86;100.00;4819.72;105135;1270;71015;-57
2024/01/25 02:57:14;;;;;;;10.40;7.60;;;;;;;-147.86;100.00;4814.29;105541;1257;63092;-57
2024/01/25 02:59:42;;;;;;;9.80;7.10;;;;;;;-147.86;100.00;4866.65;105497;1258;72345;-56
2024/01/25 03:02:10;;;;;;;10.40;7.30;;;;;;;-147.86;100.00;4952.33;105501;1257;223326;-58
2024/01/25 03:04:38;;;;;;;12.10;8.10;;;;;;;-147.86;100.00;5011.67;105598;1260;59263;-57
2024/01/25 03:07:06;;;;;;;11.00;7.90;;;;;;;-147.86;100.00;5031.83;105618;1257;72211;-58
2024/01/25 03:09:34;;;;;;;15.60;8.80;;;;;;;-147.86;100.00;5034.16;105639;1257;64336;-56
2024/01/25 03:12:02;;;;;;;13.40;8.10;;;;;;;-147.86;100.00;5160.18;105638;1260;71420;-58
2024/01/25 03:14:29;;;;;;;11.00;7.90;;;;;;;-147.86;100.00;5202.06;105606;1257;60867;-56
2024/01/25 03:16:57;;;;;;;13.80;9.10;;;;;;;-147.86;100.00;5180.35;105620;1258;59976;-58
2024/01/25 03:19:25;;;;;;;16.00;9.80;;;;;;;-147.86;100.00;5274.96;105642;1259;72974;-58
2024/01/25 03:21:57;;;;;;;12.00;9.00;;;;;;;-147.86;100.00;5285.82;105679;1257;63169;-58
2024/01/25 03:24:24;;;;;;;16.70;9.70;;;;;;;-147.86;100.00;5287.75;105620;1257;72067;-56
2024/01/25 03:26:52;;;;;;;14.70;9.40;;;;;;;-147.86;100.00;5289.70;105623;1257;59743;-57
2024/01/25 03:29:20;;;;;;;12.90;9.40;;;;;;;-147.86;100.00;5271.08;105621;1258;59557;-58
2024/01/25 03:31:48;;;;;;;15.60;9.70;;;;;;;-147.86;100.00;5287.76;105635;1257;71768;-59
2024/01/25 03:34:15;;;;;;;14.40;9.30;;;;;;;-147.86;100.00;5334.68;105619;1258;63241;-58
2024/01/25 03:36:43;;;;;;;14.50;10.40;;;;;;;-147.86;100.00;5409.90;105683;1257;71464;-56
2024/01/25 03:39:11;;;;;;;14.20;10.40;;;;;;;-147.86;100.00;5373.84;105623;1257;59650;-55
2024/01/25 03:41:39;;;;;;;14.50;9.80;;;;;;;-147.86;100.00;5571.62;105611;1259;59681;-57
2024/01/25 03:44:06;;;;;;;12.20;9.20;;;;;;;-147.86;100.00;5665.47;105591;1257;71996;-56
2024/01/25 03:46:34;;;;;;;14.40;9.50;;;;;;;-147.86;100.00;5687.97;105579;1257;63387;-54
2024/01/25 03:49:04;;;;;;;12.90;9.30;;;;;;;-147.86;100.00;5831.47;105567;1257;71375;-56
2024/01/25 03:51:32;;;;;;;14.40;10.10;;;;;;;-147.86;100.00;5960.24;105565;1262;59749;-58
2024/01/25 03:53:59;;;;;;;13.90;9.10;;;;;;;-147.86;100.00;6123.53;105554;1259;59561;-57
2024/01/25 03:56:27;;;;;;;12.60;9.40;;;;;;;-147.86;100.00;6216.25;105537;1257;73049;-57
2024/01/25 03:58:55;;;;;;;14.10;9.20;;;;;;;-147.86;100.00;6464.89;105613;1258;63193;-56
2024/01/25 04:01:23;;;;;;;15.00;9.60;;;;;;;-147.86;100.00;6506.41;105554;1257;71437;-55
2024/01/25 04:03:51;;;;;;;15.30;10.40;;;;;;;-147.86;100.00;6637.94;105610;1257;59698;-55
2024/01/25 04:06:20;;;;;;;13.60;9.30;;;;;;;-147.86;100.00;6822.20;105598;1263;59710;-57
2024/01/25 04:08:48;;;;;;;15.20;9.80;;;;;;;-147.86;100.00;7266.06;105553;1260;71749;-57
2024/01/25 04:11:16;;;;;;;13.50;9.70;;;;;;;-147.86;100.00;7544.25;105641;1258;63072;-56
2024/01/25 04:13:44;;;;;;;14.90;10.10;;;;;;;-147.86;100.00;7724.29;105605;1257;70747;-57
2024/01/25 04:16:14;;;;;;;13.90;9.10;;;;;;;-147.86;100.00;8073.15;105546;1257;59737;-57
2024/01/25 04:18:41;;;;;;;14.30;9.20;;;;;;;-147.86;100.00;8423.26;105567;1257;60101;-54
2024/01/25 04:21:09;;;;;;;13.80;9.10;;;;;;;-147.86;100.00;8490.75;105524;1257;71880;-55
2024/01/25 04:23:37;;;;;;;13.20;9.80;;;;;;;-147.86;100.00;8972.43;105555;1258;63283;-56
2024/01/25 04:26:05;;;;;;;14.80;8.90;;;;;;;-147.86;100.00;9031.46;105527;1257;71439;-58
2024/01/25 04:28:32;;;;;;;14.70;9.30;;;;;;;-147.86;100.00;9239.10;105532;1257;59896;-58
2024/01/25 04:31:02;;;;;;;14.50;8.90;;;;;;;-147.86;100.00;9578.41;105541;1262;59605;-58
2024/01/25 04:33:30;;;;;;;14.50;10.10;;;;;;;-147.86;100.00;10084.71;105557;1262;71317;-56
2024/01/25 04:35:58;;;;;;;14.80;10.00;;;;;;;-147.86;100.00;10124.68;105528;1263;63106;-57
2024/01/25 04:38:26;;;;;;;13.20;9.90;;;;;;;-147.86;100.00;10275.72;105552;1257;71448;-56
2024/01/25 04:40:54;;;;;;;16.30;11.10;;;;;;;-147.86;100.00;10594.89;105546;1258;59739;-58
2024/01/25 04:43:21;;;;;;;18.70;10.20;;;;;;;-147.86;100.00;10775.07;105576;1260;59737;-57
2024/01/25 04:45:49;;;;;;;18.20;10.80;;;;;;;-147.86;100.00;10879.93;105520;1258;71751;-57
2024/01/25 04:48:17;;;;;;;17.10;10.20;;;;;;;-147.86;100.00;11028.67;105557;1257;64379;-57
2024/01/25 04:50:45;;;;;;;18.20;11.20;;;;;;;-147.86;100.00;11471.42;105487;1257;71396;-56
2024/01/25 04:53:13;;;;;;;23.70;13.00;;;;;;;-147.86;100.00;11568.16;105580;1259;59755;-59
2024/01/25 04:55:41;;;;;;;25.40;14.30;;;;;;;-147.86;100.00;11652.44;105576;1257;59985;-57
2024/01/25 04:58:09;;;;;;;25.10;14.10;;;;;;;-147.86;100.00;11748.38;105522;1263;71193;-56
2024/01/25 05:00:39;;;;;;;27.90;16.00;;;;;;;-147.86;100.00;11718.47;105591;1263;63200;-57
2024/01/25 05:03:07;;;;;;;30.30;17.40;;;;;;;-147.86;100.00;12120.93;105824;1258;72611;-58
2024/01/25 05:05:35;;;;;;;39.80;19.90;;;;;;;-147.86;100.00;12005.14;105762;1254;59674;-58
2024/01/25 05:08:04;;;;;;;34.30;18.30;;;;;;;-147.86;100.00;11995.82;105733;1254;59957;-55
2024/01/25 05:10:32;;;;;;;36.70;19.20;;;;;;;-147.86;100.00;12604.17;105773;1252;71777;-59
2024/01/25 05:12:59;;;;;;;33.70;18.60;;;;;;;-147.86;100.00;12561.08;105778;1260;63097;-59
2024/01/25 05:15:27;;;;;;;34.90;18.80;;;;;;;-147.86;100.00;12750.28;105750;1254;71427;-57
2024/01/25 05:17:55;;;;;;;40.80;20.50;;;;;;;-147.86;100.00;12928.61;105854;1253;59714;-58
2024/01/25 05:20:28;;;;;;;41.60;20.20;;;;;;;-147.86;100.00;13022.66;105807;1257;59557;-56
2024/01/25 05:22:56;;;;;;;41.40;19.90;;;;;;;-147.86;100.00;13397.67;105768;1253;71794;-58
2024/01/25 05:25:25;;;;;;;44.00;21.90;;;;;;;-147.86;100.00;13222.37;105758;1254;63896;-58
2024/01/25 05:27:55;;;;;;;44.50;21.50;;;;;;;-147.86;100.00;13263.60;105778;1257;72620;-57
2024/01/25 05:30:23;;;;;;;48.40;22.50;;;;;;;-147.86;100.00;13438.06;105825;1257;59861;-57
2024/01/25 05:32:53;;;;;;;45.70;22.40;;;;;;;-147.86;100.00;13568.62;105865;1257;59692;-56
2024/01/25 05:35:21;;;;;;;47.30;24.20;;;;;;;-147.86;100.00;13801.44;105823;1257;70817;-57
2024/01/25 05:37:49;;;;;;;46.30;22.80;;;;;;;-147.86;100.00;13904.38;105811;1253;63235;-56
2024/01/25 05:40:18;;;;;;;45.20;22.80;;;;;;;-147.86;100.00;14158.57;105792;1254;71357;-58
2024/01/25 05:42:46;;;;;;;44.10;22.00;;;;;;;-147.86;100.00;14640.97;105795;1256;59692;-55
2024/01/25 05:45:14;;;;;;;42.90;21.80;;;;;;;-147.86;100.00;14713.25;105781;1257;60025;-55
2024/01/25 05:47:42;;;;;;;49.70;24.10;;;;;;;-147.86;100.00;14707.07;105723;1254;71801;-56
2024/01/25 05:50:10;;;;;;;49.80;24.70;;;;;;;-147.86;100.00;14336.61;105738;1257;63112;-54
2024/01/25 05:52:39;;;;;;;49.10;22.60;;;;;;;-147.86;100.00;14581.90;105760;1254;72642;-57
2024/01/25 05:55:08;;;;;;;46.80;23.40;;;;;;;-147.86;100.00;14645.61;105762;1254;60886;-58
2024/01/25 05:57:36;;;;;;;46.80;22.80;;;;;;;-147.86;100.00;15223.69;105803;1257;59548;-60
2024/01/25 06:00:05;;;;;;;53.10;23.50;;;;;;;-147.86;100.00;15375.74;105861;1254;71778;-57
2024/01/25 06:02:36;;;;;;;45.60;22.70;;;;;;;-147.86;100.00;15411.92;105874;1257;64372;-57
2024/01/25 06:05:04;;;;;;;45.80;24.20;;;;;;;-147.86;100.00;15413.81;105779;1253;72651;-59
2024/01/25 06:07:32;;;;;;;49.30;23.80;;;;;;;-147.86;100.00;15382.72;105736;1252;59740;-58
2024/01/25 06:10:00;;;;;;;46.70;22.00;;;;;;;-147.86;100.00;15159.94;105756;1257;59574;-57
2024/01/25 06:12:28;;;;;;;48.00;22.90;;;;;;;-147.86;100.00;15397.50;105773;1254;71769;-59
2024/01/25 06:14:57;;;;;;;47.70;22.10;;;;;;;-147.86;100.00;15533.95;105810;1258;64521;-54
2024/01/25 06:17:24;;;;;;;49.30;23.30;;;;;;;-147.86;100.00;15474.88;105903;1256;70784;-58
2024/01/25 06:19:52;;;;;;;48.90;23.30;;;;;;;-147.86;100.00;15594.22;105774;1254;59886;-58
2024/01/25 06:22:20;;;;;;;50.00;23.30;;;;;;;-147.86;100.00;15657.62;105797;1258;59551;-58
2024/01/25 06:24:48;;;;;;;45.00;22.00;;;;;;;-147.86;100.00;15792.12;105780;1252;71478;-58
2024/01/25 06:27:17;;;;;;;43.00;21.90;;;;;;;-147.86;100.00;15793.72;105843;1254;63227;-58
2024/01/25 06:29:44;;;;;;;39.30;21.80;;;;;;;-147.86;100.00;15929.40;105794;1254;71396;-59
2024/01/25 06:32:13;;;;;;;41.70;21.50;;;;;;;-147.86;100.00;16368.44;105790;1254;59646;-57
2024/01/25 06:34:53;;;;;;;48.80;22.70;;;;;;;-147.86;100.00;17342.05;105862;1254;60238;-57
2024/01/25 06:37:21;;;;;;;43.30;22.00;;;;;;;-147.86;100.00;17346.26;105805;1252;71764;-57
2024/01/25 06:39:49;;;;;;;44.10;21.10;;;;;;;-147.86;100.00;17456.33;105911;1260;63235;-57
2024/01/25 06:42:18;;;;;;;45.00;22.40;;;;;;;-147.86;100.00;17777.28;105836;1254;70453;-56
2024/01/25 06:44:46;;;;;;;42.00;22.30;;;;;;;-147.86;100.00;17564.10;105787;1253;59698;-58
2024/01/25 06:47:15;;;;;;;45.20;22.80;;;;;;;-147.86;100.00;17594.45;105827;1252;59548;-55
2024/01/25 06:49:42;;;;;;;47.00;21.80;;;;;;;-147.86;100.00;17502.25;105756;1254;72094;-55
2024/01/25 06:52:12;;;;;;;45.10;22.70;;;;;;;-147.86;100.00;17561.77;105846;1254;63142;-60
2024/01/25 06:54:39;;;;;;;46.10;22.00;;;;;;;-147.86;100.00;17469.58;105813;1254;72645;-56
2024/01/25 06:57:07;;;;;;;39.80;21.30;;;;;;;-147.86;100.00;17356.36;105765;1259;60472;-57
2024/01/25 06:59:35;;;;;;;41.50;21.00;;;;;;;-147.86;100.00;17164.23;105784;1257;60537;-56
2024/01/25 07:02:03;;;;;;;41.00;21.10;;;;;;;-147.86;100.00;16923.07;105859;1254;72606;-59
2024/01/25 07:04:32;;;;;;;39.30;20.60;;;;;;;-147.86;100.00;16630.20;105807;1254;64514;-58
2024/01/25 07:07:01;;;;;;;43.80;21.40;;;;;;;-147.86;100.00;16502.25;105818;1255;71388;-57
2024/01/25 07:09:29;;;;;;;37.90;20.20;;;;;;;-147.86;100.00;16372.73;105808;1255;61763;-59
2024/01/25 07:11:57;;;;;;;46.40;21.80;;;;;;;-147.86;100.00;16285.25;105804;1257;60357;-56
2024/01/25 07:14:24;;;;;;;38.70;19.20;;;;;;;-147.86;100.00;16128.51;105753;1259;72867;-58
2024/01/25 07:16:52;;;;;;;44.00;20.80;;;;;;;-147.86;100.00;15808.88;105824;1254;63198;-57
2024/01/25 07:19:20;;;;;;;37.30;19.20;;;;;;;-147.86;100.00;15962.47;105764;1254;72977;-57
2024/01/25 07:21:47;;;;;;;39.60;20.30;;;;;;;-147.86;100.00;15483.45;105816;1258;62003;-58
2024/01/25 07:24:15;;;;;;;40.40;20.70;;;;;;;-147.86;100.00;15567.41;105800;1254;60496;-57
2024/01/25 07:26:43;;;;;;;37.80;19.20;;;;;;;-147.86;100.00;15509.12;105798;1252;73711;-55
2024/01/25 07:29:11;;;;;;;34.50;18.50;;;;;;;-147.86;100.00;15067.03;105768;1257;64079;-57
2024/01/25 07:31:38;;;;;;;32.70;18.50;;;;;;;-147.86;100.00;14780.55;105818;1254;74715;-59
2024/01/25 07:34:06;;;;;;;35.70;17.80;;;;;;;-147.86;100.00;14637.85;105771;1257;60543;-56
2024/01/25 07:36:34;;;;;;;36.20;18.80;;;;;;;-147.86;100.00;14432.26;105816;1254;60634;-59
2024/01/25 07:39:02;;;;;;;36.30;19.60;;;;;;;-147.86;100.00;14024.51;105777;1254;73995;-56
2024/01/25 07:41:30;;;;;;;35.00;18.80;;;;;;;-147.86;100.00;13764.91;105833;1258;63538;-58
2024/01/25 07:43:57;;;;;;;35.30;18.00;;;;;;;-147.86;100.00;13444.29;105761;1260;73582;-59
2024/01/25 07:46:25;;;;;;;29.70;16.80;;;;;;;-147.86;100.00;13093.80;105824;1254;60594;-58
2024/01/25 07:48:53;;;;;;;38.50;19.60;;;;;;;-147.86;100.00;12427.86;105731;1254;61871;-57
2024/01/25 07:51:21;;;;;;;36.90;19.40;;;;;;;-147.86;100.00;11874.25;105753;1260;72651;-57
2024/01/25 07:53:50;;;;;;;36.10;19.20;;;;;;;-147.86;100.00;11828.40;105765;1260;66640;-58
2024/01/25 07:56:18;;;;;;;38.50;18.90;;;;;;;-147.86;100.00;11788.79;105833;1257;72481;-60
2024/01/25 07:58:45;;;;;;;36.70;19.30;;;;;;;-147.86;100.00;11635.76;105820;1254;60647;-57
2024/01/25 08:01:15;;;;;;;36.60;18.60;;;;;;;-147.86;100.00;11707.97;105820;1258;60473;-58
2024/01/25 08:03:43;;;;;;;35.70;19.40;;;;;;;-147.86;100.00;11502.94;105693;1254;72588;-57
2024/01/25 08:06:11;;;;;;;36.80;19.90;;;;;;;-147.86;100.00;11273.74;105808;1258;63131;-58
2024/01/25 08:08:39;;;;;;;36.40;19.50;;;;;;;-147.86;100.00;11250.84;105853;1260;71642;-57
2024/01/25 08:11:08;;;;;;;33.10;18.90;;;;;;;-147.86;100.00;10991.40;105892;1254;60949;-59
2024/01/25 08:13:35;;;;;;;37.70;20.30;;;;;;;-147.86;100.00;10883.08;105833;1254;62354;-59
2024/01/25 08:16:04;;;;;;;35.70;19.50;;;;;;;-147.86;100.00;10412.41;105772;1258;73899;-59
2024/01/25 08:18:32;;;;;;;33.40;18.60;;;;;;;-147.86;100.00;10250.10;105722;1254;63674;-58
2024/01/25 08:21:00;;;;;;;33.50;18.80;;;;;;;-147.86;100.00;9910.77;105807;1253;71611;-58
2024/01/25 08:23:28;;;;;;;34.90;18.70;;;;;;;-147.86;100.00;9554.36;105822;1253;61325;-59
2024/01/25 08:25:56;;;;;;;36.30;20.20;;;;;;;-147.86;100.00;9335.76;105775;1252;62313;-58
2024/01/25 08:28:24;;;;;;;35.40;18.00;;;;;;;-147.86;100.00;9385.84;105791;1257;73607;-55
2024/01/25 08:30:53;;;;;;;34.20;18.90;;;;;;;-147.86;100.00;9460.77;105808;1259;64781;-57
2024/01/25 08:33:20;;;;;;;37.20;18.60;;;;;;;-147.86;100.00;9230.59;105859;1257;71401;-57
2024/01/25 08:35:48;;;;;;;32.40;18.60;;;;;;;-147.86;100.00;8930.13;105817;1260;60588;-59
2024/01/25 08:38:16;;;;;;;36.90;19.40;;;;;;;-147.86;100.00;8690.25;105850;1259;60460;-60
2024/01/25 08:40:44;;;;;;;34.60;19.00;;;;;;;-147.86;100.00;8319.19;105808;1254;76214;-59
2024/01/25 08:43:12;;;;;;;33.70;18.40;;;;;;;-147.86;100.00;8187.61;105843;1258;65545;-57
2024/01/25 08:45:40;;;;;;;32.90;16.80;;;;;;;-147.86;100.00;8118.52;105793;1254;71654;-57
2024/01/25 08:48:08;;;;;;;32.60;17.60;;;;;;;-147.86;100.00;8099.50;105824;1258;60532;-57
2024/01/25 08:50:37;;;;;;;35.40;18.40;;;;;;;-147.86;100.00;8366.50;105885;1254;62264;-59
2024/01/25 08:53:05;;;;;;;34.40;18.70;;;;;;;-147.86;100.00;8567.15;105785;1254;72551;-59
2024/01/25 08:55:33;;;;;;;35.80;19.00;;;;;;;-147.86;100.00;8658.75;105884;1258;64480;-57
2024/01/25 08:58:01;;;;;;;35.70;18.70;;;;;;;-147.86;100.00;8509.33;105891;1254;73621;-56
2024/01/25 09:00:29;;;;;;;29.40;16.90;;;;;;;-147.86;100.00;8444.10;105794;1254;60504;-58
2024/01/25 09:02:57;;;;;;;31.80;18.40;;;;;;;-147.86;100.00;8599.35;105880;1257;60530;-59
2024/01/25 09:05:28;;;;;;;35.40;18.30;;;;;;;-147.86;100.00;8503.87;105819;1254;73942;-58
2024/01/25 09:07:56;;;;;;;32.80;17.60;;;;;;;-147.86;100.00;8468.96;105844;1254;65162;-56
2024/01/25 09:10:24;;;;;;;35.10;17.90;;;;;;;-147.86;100.00;8305.93;105833;1257;72400;-55
2024/01/25 09:12:52;;;;;;;30.70;17.00;;;;;;;-147.86;100.00;8170.48;105806;1255;60552;-56
2024/01/25 09:15:20;;;;;;;32.80;16.40;;;;;;;-147.86;100.00;8135.56;105817;1253;60572;-58
2024/01/25 09:17:47;;;;;;;34.00;17.20;;;;;;;-147.86;100.00;8050.20;105923;1257;73662;-56
2024/01/25 09:20:16;;;;;;;29.80;17.20;;;;;;;-147.86;100.00;7893.08;105801;1259;64932;-58
2024/01/25 09:22:44;;;;;;;32.30;17.10;;;;;;;-147.86;100.00;7955.97;105837;1260;73743;-57
2024/01/25 09:25:13;;;;;;;29.60;16.80;;;;;;;-147.86;100.00;8042.11;105771;1254;60530;-58
2024/01/25 09:27:41;;;;;;;32.00;16.20;;;;;;;-147.86;100.00;8018.46;105830;1254;60546;-57
2024/01/25 09:30:09;;;;;;;28.40;16.50;;;;;;;-147.86;100.00;7929.21;105861;1254;72545;-56
2024/01/25 09:32:37;;;;;;;27.40;15.20;;;;;;;-147.86;100.00;7928.09;105887;1257;66560;-56
2024/01/25 09:35:07;;;;;;;29.50;16.20;;;;;;;-147.86;100.00;8180.34;105813;1254;71384;-58
2024/01/25 09:37:36;;;;;;;31.40;17.30;;;;;;;-147.86;100.00;8322.44;105843;1254;62009;-57
2024/01/25 09:40:05;;;;;;;33.10;16.30;;;;;;;-147.86;100.00;8605.72;105840;1253;62166;-57
2024/01/25 09:42:34;;;;;;;34.70;17.00;;;;;;;-147.86;100.00;8551.03;105706;1259;76134;-55
2024/01/25 09:45:01;;;;;;;29.10;17.00;;;;;;;-147.86;100.00;8788.16;105713;1254;64345;-55
2024/01/25 09:47:29;;;;;;;29.70;16.60;;;;;;;-147.86;100.00;8895.29;105811;1256;73820;-57
2024/01/25 09:49:59;;;;;;;29.60;15.90;;;;;;;-147.86;100.00;8898.80;105837;1260;60720;-58
2024/01/25 09:52:27;;;;;;;30.60;15.60;;;;;;;-147.86;100.00;8982.26;105815;1254;60514;-56
2024/01/25 09:54:56;;;;;;;30.10;16.40;;;;;;;-147.86;100.00;9123.56;105718;1254;75935;-56
2024/01/25 09:57:26;;;;;;;31.60;16.00;;;;;;;-147.86;100.00;9280.77;105705;1254;62110;-56
2024/01/25 09:59:57;;;;;;;32.40;16.60;;;;;;;-147.86;100.00;9303.30;105750;1257;73649;-58
2024/01/25 10:02:26;;;;;;;30.90;16.50;;;;;;;-147.86;100.00;9183.80;105836;1256;60977;-56
2024/01/25 10:04:55;;;;;;;28.40;15.50;;;;;;;-147.86;100.00;9268.38;105873;1254;60540;-55
2024/01/25 10:07:40;;;;;;;32.60;15.90;;;;;;;-147.86;100.00;9479.91;105817;1259;74000;-58
2024/01/25 10:10:10;;;;;;;21.40;11.80;;;;;;;-147.86;100.00;8562.34;105869;1254;63735;-57
2024/01/25 10:12:42;;;;;;;28.60;15.20;;;;;;;-147.86;100.00;9376.72;105810;1259;72021;-58
2024/01/25 10:15:11;;;;;;;26.20;14.90;;;;;;;-147.86;100.00;9362.01;105836;1254;62371;-58
2024/01/25 10:17:39;;;;;;;30.50;16.50;;;;;;;-147.86;100.00;9741.19;105832;1252;62103;-57
2024/01/25 10:20:27;;;;;;;25.10;15.10;;;;;;;-147.86;100.00;8824.35;105847;1257;73244;-56
2024/01/25 10:22:58;;;;;;;25.80;15.10;;;;;;;-147.86;100.00;9634.15;105712;1259;64397;-57
2024/01/25 10:25:29;;;;;;;26.70;14.30;;;;;;;-147.86;100.00;9922.94;105881;1254;72568;-57
2024/01/25 10:27:57;;;;;;;31.40;14.90;;;;;;;-147.86;100.00;10082.09;105856;1257;60781;-56
2024/01/25 10:30:25;;;;;;;25.90;15.10;;;;;;;-147.86;100.00;10221.51;105901;1258;60549;-57
2024/01/25 10:32:54;;;;;;;24.00;14.20;;;;;;;-147.86;100.00;10445.90;105689;1259;73863;-57
2024/01/25 10:35:22;;;;;;;25.40;14.50;;;;;;;-147.86;100.00;10461.44;105733;1255;65002;-57
2024/01/25 10:37:52;;;;;;;26.50;14.40;;;;;;;-147.86;100.00;10352.77;105829;1257;74900;-57
2024/01/25 10:40:21;;;;;;;29.70;14.60;;;;;;;-147.86;100.00;10494.08;105843;1254;62320;-54
2024/01/25 10:42:49;;;;;;;23.30;14.10;;;;;;;-147.86;100.00;10571.36;105858;1254;60466;-54
2024/01/25 10:45:19;;;;;;;25.70;14.10;;;;;;;-147.86;100.00;10459.16;105830;1252;73688;-57
2024/01/25 10:47:48;;;;;;;25.70;15.20;;;;;;;-147.86;100.00;10558.14;105899;1254;63230;-58
2024/01/25 10:50:17;;;;;;;25.60;14.80;;;;;;;-147.86;100.00;10650.21;105865;1254;74759;-57
2024/01/25 10:52:45;;;;;;;24.20;13.60;;;;;;;-147.86;100.00;10711.15;105838;1254;63116;-58
2024/01/25 10:55:13;;;;;;;26.20;14.60;;;;;;;-147.86;100.00;10812.48;105693;1259;60502;-58
2024/01/25 10:57:45;;;;;;;27.70;13.40;;;;;;;-147.86;100.00;10970.57;105712;1260;73951;-57
2024/01/25 11:00:15;;;;;;;25.50;13.70;;;;;;;-147.86;100.00;10829.32;105855;1260;63903;-57
2024/01/25 11:02:44;;;;;;;23.30;13.50;;;;;;;-147.86;100.00;10972.95;105871;1257;73088;-56
2024/01/25 11:05:12;;;;;;;21.20;13.50;;;;;;;-147.86;100.00;11048.63;105857;1258;60590;-56
2024/01/25 11:07:50;;;;;;;20.20;13.50;;;;;;;-147.86;100.00;10941.84;105915;1254;61115;-56
2024/01/25 11:10:24;;;;;;;23.00;13.70;;;;;;;-147.86;100.00;10233.45;105914;1254;74207;-55
2024/01/25 11:12:56;;;;;;;23.70;12.80;;;;;;;-147.86;100.00;10493.86;105886;1260;65292;-58
2024/01/25 11:15:36;;;;;;;25.20;13.80;;;;;;;-147.86;100.00;10753.65;105880;1260;71427;-58
2024/01/25 11:18:08;;;;;;;25.40;13.50;;;;;;;-147.86;100.00;10294.93;105874;1260;60535;-55
2024/01/25 11:20:37;;;;;;;21.80;12.90;;;;;;;-147.86;100.00;10871.64;105884;1260;60645;-57
2024/01/25 11:23:06;;;;;;;18.70;12.80;;;;;;;-147.86;100.00;11077.81;105879;1257;76087;-57
2024/01/25 11:25:36;;;;;;;24.50;13.20;;;;;;;-147.86;100.00;11234.33;105862;1254;63292;-58
2024/01/25 11:28:04;;;;;;;25.40;14.20;;;;;;;-147.86;100.00;11374.55;105876;1254;74949;-59
2024/01/25 11:30:34;;;;;;;26.30;14.80;;;;;;;-147.86;100.00;11602.53;105906;1257;61250;-59